This is the latest recevied weather packets stored in our database for station/object WB7AAV. If no packets are shown the sender has not sent any weather packets the latest 10 day(s).
| Time | Temp. | Humidity | Pressure | Rain* | Wind** | Luminosity | Snow |
|---|---|---|---|---|---|---|---|
| 1777679044 | 12.78° C | 26% | 1019.8 hPa | 0 mm | - | - | - |
| 1777675657 | 12.22° C | 28% | 1019.6 hPa | 0 mm | - | - | - |
| 1777672350 | 11.67° C | 36% | 1019.8 hPa | 0 mm | - | - | - |
| 1777671154 | 12.78° C | 35% | 1019.9 hPa | 0 mm | - | - | - |
| 1777669353 | 11.67° C | 40% | 1020.4 hPa | 0 mm | - | - | - |
| 1777668146 | 11.11° C | 38% | 1020.4 hPa | 0 mm | - | - | - |
| 1777667247 | 10.56° C | 39% | 1020.5 hPa | 0 mm | - | - | - |
| 1777663945 | 11.11° C | 38% | 1020.7 hPa | 0 mm | - | - | - |
| 1777662142 | 9.44° C | 43% | 1021 hPa | 0 mm | - | - | - |
| 1777659739 | 10.56° C | 42% | 1021.3 hPa | 0 mm | - | - | - |
| 1777659441 | 11.11° C | 40% | 1021.3 hPa | 0 mm | - | - | - |
| 1777658839 | 11.11° C | 43% | 1021.3 hPa | 0 mm | - | - | - |
| 1777656439 | 8.89° C | 45% | 1021.7 hPa | 0 mm | - | - | - |
| 1777655234 | 8.89° C | 44% | 1021.7 hPa | 0 mm | - | - | - |
| 1777654934 | 8.89° C | 46% | 1021.7 hPa | 0 mm | - | - | - |
| 1777653132 | 8.33° C | 51% | 1021.7 hPa | 0 mm | - | - | - |
| 1777652234 | 7.78° C | 53% | 1021.6 hPa | 0 mm | - | - | - |
| 1777650139 | 6.67° C | 63% | 1021.7 hPa | 0 mm | - | - | - |
| 1777648032 | 6.11° C | 73% | 1021.6 hPa | 0.25 mm | - | - | - |
| 1777646830 | 6.11° C | 69% | 1021.7 hPa | 0.25 mm | - | - | - |
| 1777645932 | 5.56° C | 75% | 1021.7 hPa | 0 mm | - | - | - |
| 1777645928 | 5.56° C | 72% | 1021.7 hPa | 0 mm | - | - | - |
| 1777644727 | 5° C | 74% | 1021.6 hPa | 0 mm | - | - | - |
| 1777642627 | 3.89° C | 80% | 1021.3 hPa | 0 mm | - | - | - |
| 1777642328 | 3.33° C | 82% | 1021.3 hPa | 0 mm | - | - | - |
* Rain latest hour (hover to see other rain measurements)
** Current wind speed in m/s (hover to see current wind gust speed)